Kobuk Valley National Park, AK

1:46 AM AKDT op 31 oktober 2014 (GMT -0800)
Baker Memorial | Change Station
CLOSE
Current Station
Luchthaven
Location: Kiana,
Geometrische hoogte: 151 ft
Nabije weerstations

Hoogte 151 ft 66.98 °N, 160.44 °W | Updated 45 minutes ago

Clear
Helder
14 °F
Voelt als 5 °F
N
6
Wind Variabel Wind van NNW

Vandaag
Hoog -- | Laag -- °F
--% Kans op neerslag
Gisteren
Hoog -- | Laag -- °F
Precip. -- inches
10:45 AM 6:02 PM
Eerste kwartier, 53% visible
Druk 29.95 inches
Zicht 10.0 mijlen
Wolken Helder
Gevoelstemperatuur 5 °F
Dauwpunt 8 °F
Vochtigheid 77%
Neerslag 0.00 inches
Dikte sneeuw Niet beschikbaar.
UV 0 van de 12
Pollen Niet beschikbaar.
Luchtkwaliteit Niet beschikbaar.
Flu Activity Niet beschikbaar.
METAR PAIK 310901Z AUTO 34005KT 10SM CLR M10/M13 A2982 RMK AO2 SLP142 T11001133 411001100 58015 FZRANO

More Conditions Fewer Conditions

Druk 29.95 inches
Zicht 10.0 mijlen
Wolken Helder
Gevoelstemperatuur 5 °F
Dauwpunt 8 °F
Vochtigheid 77%
Neerslag 0.00 inches
Dikte sneeuw Niet beschikbaar.
UV 0 van de 12
Pollen Niet beschikbaar.
Luchtkwaliteit Niet beschikbaar.
Flu Activity Niet beschikbaar.
METAR PAIK 310901Z AUTO 34005KT 10SM CLR M10/M13 A2982 RMK AO2 SLP142 T11001133 411001100 58015 FZRANO

More Conditions Fewer Conditions

10-Day Weather Forecast

Almanac

Astronomie

Oct. 31, 2014 Opkomst Ondergang
Werkelijke tijd
Burgerlijke schemering
Nautische schemering
Astronomische schemering
Maan
Golflengte van het zichtbare licht
Daglengte
Tomorrow will be .
, % of the Moon is Illuminated

Extremen vandaag

State Highs State Lows

Community

WunderPhotos

Upload Photos

1,766,577 foto’s ge-upload!

WunderBlogs® & News

Nearby

Luchtkwaliteit

  Luchtkwaliteit LK-index Verontreinigende stof
Not available.

Dikte sneeuw

Station Depth Geometrische hoogte

Aardbevingen

Stad Distance Mag. Time & Date
Minimum magnitude displayed is 2.5.

Watertemperatuur langs de kust

Plaats Temperatuur

Nabije weerstations